Time;durP1;ratioP1;P1;durP2;ratioP2;P2;SDS_P1;SDS_P2;PMS_P1;PMS_P2;Temp;Humidity;BMP_temperature;BMP_pressure;BME280_temperature;BME280_humidity;BME280_pressure;Samples;Min_cycle;Max_cycle;Signal;HPM_P1;HPM_P2
2023/04/15 00:00:08;;;;;;;7.85;4.93;;;;;;;6.03;89.19;100769.78;1044143;28;20797;-77
2023/04/15 00:00:43;;;;;;;8.93;5.32;;;;;;;6.22;88.72;100770.97;1044471;28;20396;-77
2023/04/15 00:01:18;;;;;;;9.27;5.85;;;;;;;6.18;88.59;100765.22;1044621;28;20781;-77
2023/04/15 00:01:50;;;;;;;7.95;4.85;;;;;;;6.06;88.57;100769.41;1041969;28;20294;-77
2023/04/15 00:02:22;;;;;;;6.85;4.40;;;;;;;6.06;88.64;100766.75;1039875;28;20300;-77
2023/04/15 00:02:54;;;;;;;12.77;5.03;;;;;;;6.16;88.32;100771.72;1039745;28;20300;-77
2023/04/15 00:03:27;;;;;;;11.50;4.38;;;;;;;6.11;87.93;100763.53;1041475;28;20295;-77
2023/04/15 00:03:59;;;;;;;9.80;4.13;;;;;;;6.07;88.49;100762.28;1044063;28;20382;-77
2023/04/15 00:04:32;;;;;;;9.25;4.60;;;;;;;6.10;88.30;100762.72;1044132;28;20295;-77
2023/04/15 00:05:05;;;;;;;11.88;4.60;;;;;;;6.06;89.71;100773.88;1039903;28;20303;-77
2023/04/15 00:05:37;;;;;;;5.47;4.35;;;;;;;6.14;90.27;100773.75;1035832;28;20300;-77
2023/04/15 00:06:08;;;;;;;12.40;4.85;;;;;;;5.99;90.24;100770.31;1035665;28;20632;-77
2023/04/15 00:06:40;;;;;;;5.95;5.45;;;;;;;6.07;90.27;100771.03;1037636;28;20707;-77
2023/04/15 00:07:12;;;;;;;9.98;5.13;;;;;;;6.33;89.87;100773.13;1047901;28;20291;-77
2023/04/15 00:07:46;;;;;;;7.40;4.65;;;;;;;6.47;88.59;100769.56;1048273;28;20303;-77
2023/04/15 00:08:17;;;;;;;6.75;4.50;;;;;;;6.38;88.24;100769.88;1048246;28;20874;-77
2023/04/15 00:08:51;;;;;;;12.23;4.38;;;;;;;6.41;88.31;100759.75;1048468;28;20364;-77
2023/04/15 00:09:23;;;;;;;5.55;4.68;;;;;;;6.48;87.83;100771.19;1040124;28;20300;-77
2023/04/15 00:09:56;;;;;;;7.30;4.70;;;;;;;6.17;86.65;100762.78;1041094;28;20296;-77
2023/04/15 00:10:28;;;;;;;5.40;4.68;;;;;;;6.16;87.36;100761.13;1042456;28;20391;-77
2023/04/15 00:11:01;;;;;;;7.60;4.72;;;;;;;6.53;87.12;100767.16;1048311;28;20873;-77
2023/04/15 00:11:33;;;;;;;4.50;4.10;;;;;;;6.72;86.01;100756.72;1048851;28;20298;-76
2023/04/15 00:12:05;;;;;;;4.53;3.83;;;;;;;6.85;86.05;100761.31;1045608;28;20815;-77
2023/04/15 00:12:36;;;;;;;6.03;4.25;;;;;;;6.98;84.58;100758.72;1047943;28;20396;-76
2023/04/15 00:13:09;;;;;;;5.65;3.88;;;;;;;6.94;84.44;100749.53;1035983;28;20304;-77
2023/04/15 00:13:40;;;;;;;9.60;4.30;;;;;;;7.07;83.82;100754.91;1035425;28;20821;-77
2023/04/15 00:14:12;;;;;;;5.53;4.18;;;;;;;7.11;83.72;100756.16;1035861;28;20304;-77
2023/04/15 00:14:44;;;;;;;5.13;4.03;;;;;;;7.11;83.37;100753.50;1034834;28;20519;-76
2023/04/15 00:15:16;;;;;;;4.68;3.58;;;;;;;7.16;82.48;100746.81;1040022;28;20331;-76
2023/04/15 00:15:47;;;;;;;8.95;4.68;;;;;;;7.17;82.68;100753.75;1044082;28;20330;-76
2023/04/15 00:16:20;;;;;;;8.95;4.93;;;;;;;6.97;82.15;100754.44;1044208;28;20845;-76
2023/04/15 00:16:54;;;;;;;5.10;3.42;;;;;;;7.08;82.86;100753.88;1043889;28;20307;-77
2023/04/15 00:17:26;;;;;;;9.90;4.93;;;;;;;6.99;83.30;100756.91;1043482;28;20295;-76
2023/04/15 00:17:58;;;;;;;4.50;3.75;;;;;;;7.04;83.68;100760.59;1042397;28;20419;-76
2023/04/15 00:18:30;;;;;;;7.03;4.47;;;;;;;7.08;83.47;100753.88;1045432;28;20348;-77
2023/04/15 00:19:02;;;;;;;5.82;3.95;;;;;;;7.03;83.01;100758.13;1044366;28;20302;-77
2023/04/15 00:19:34;;;;;;;8.82;4.03;;;;;;;7.01;83.52;100760.97;1043861;28;21909;-77
2023/04/15 00:20:05;;;;;;;7.78;5.03;;;;;;;6.82;83.53;100756.38;1044511;28;20317;-77
2023/04/15 00:20:37;;;;;;;11.75;5.80;;;;;;;6.86;83.33;100752.34;1043629;28;20307;-77
2023/04/15 00:21:09;;;;;;;10.15;4.22;;;;;;;6.77;84.31;100754.31;1043959;28;20817;-77
2023/04/15 00:21:40;;;;;;;5.35;4.13;;;;;;;6.83;84.57;100758.00;1041962;28;20308;-77
2023/04/15 00:22:12;;;;;;;6.93;4.43;;;;;;;6.87;84.58;100754.00;1043128;28;20634;-77
2023/04/15 00:22:44;;;;;;;5.50;4.10;;;;;;;6.98;84.67;100755.25;1039962;28;20354;-77
2023/04/15 00:23:15;;;;;;;6.97;4.25;;;;;;;6.96;84.25;100750.16;1044788;28;20374;-77
2023/04/15 00:23:51;;;;;;;7.35;4.50;;;;;;;7.04;83.55;100760.59;1043602;28;20397;-77
2023/04/15 00:24:23;;;;;;;7.93;4.78;;;;;;;7.02;83.92;100746.72;1045026;28;20303;-79
2023/04/15 00:24:55;;;;;;;4.68;4.28;;;;;;;7.08;83.30;100761.84;1037354;28;20299;-79
2023/04/15 00:25:27;;;;;;;6.30;3.38;;;;;;;7.11;83.54;100750.84;1034576;28;20301;-79
2023/04/15 00:25:59;;;;;;;11.80;4.72;;;;;;;7.01;83.48;100760.16;1036168;28;20845;-79
2023/04/15 00:26:30;;;;;;;6.25;3.85;;;;;;;7.06;83.33;100761.22;1038358;28;20308;-79
2023/04/15 00:27:03;;;;;;;5.57;3.72;;;;;;;6.88;83.80;100760.91;1048495;28;20855;-79
2023/04/15 00:27:35;;;;;;;3.92;3.40;;;;;;;6.99;83.46;100757.72;1044159;28;20303;-79
2023/04/15 00:28:07;;;;;;;8.55;4.32;;;;;;;7.07;83.14;100751.44;1044498;28;20295;-79
2023/04/15 00:28:39;;;;;;;7.50;4.13;;;;;;;7.10;83.58;100753.69;1041767;28;20310;-79
2023/04/15 00:29:10;;;;;;;7.55;4.38;;;;;;;7.11;83.37;100758.78;1035468;28;20297;-79
2023/04/15 00:29:42;;;;;;;8.82;4.80;;;;;;;7.10;83.04;100759.81;1035729;28;20300;-79
2023/04/15 00:30:14;;;;;;;5.55;4.05;;;;;;;7.16;83.12;100757.41;1036831;28;20315;-80
2023/04/15 00:30:46;;;;;;;8.85;3.85;;;;;;;7.16;82.54;100762.72;1043674;28;20307;-79
2023/04/15 00:31:17;;;;;;;6.90;4.47;;;;;;;7.08;83.20;100761.84;1043913;28;20299;-79
2023/04/15 00:31:49;;;;;;;7.10;4.53;;;;;;;7.06;82.92;100761.22;1039767;28;20644;-79
2023/04/15 00:32:22;;;;;;;6.82;4.55;;;;;;;7.04;82.95;100750.00;1039982;28;20292;-79
2023/04/15 00:32:54;;;;;;;7.22;4.90;;;;;;;6.72;84.19;100764.66;1039121;28;20737;-79
2023/04/15 00:33:26;;;;;;;6.13;4.65;;;;;;;6.75;84.59;100760.81;1040073;28;20446;-79
2023/04/15 00:33:58;;;;;;;4.57;4.05;;;;;;;6.85;84.56;100758.66;1044221;28;20658;-79
2023/04/15 00:34:30;;;;;;;5.72;5.03;;;;;;;6.91;84.55;100760.53;1042733;28;20314;-80
2023/04/15 00:35:02;;;;;;;8.15;4.90;;;;;;;6.98;84.03;100764.03;1043656;28;20303;-79
2023/04/15 00:35:36;;;;;;;7.05;5.05;;;;;;;6.97;84.54;100759.75;1043983;28;20364;-79
2023/04/15 00:36:08;;;;;;;6.28;4.57;;;;;;;7.05;84.29;100762.22;1041106;28;20300;-79
2023/04/15 00:36:41;;;;;;;7.50;4.60;;;;;;;7.09;83.76;100757.34;1043879;28;20299;-79
2023/04/15 00:37:12;;;;;;;9.90;4.00;;;;;;;7.07;84.23;100757.56;1039759;28;21339;-79
2023/04/15 00:37:44;;;;;;;5.28;4.30;;;;;;;7.12;83.57;100757.81;1034255;28;20301;-79
2023/04/15 00:38:17;;;;;;;5.28;3.90;;;;;;;7.13;83.84;100763.94;1039859;28;20303;-79
2023/04/15 00:38:49;;;;;;;5.93;4.40;;;;;;;7.14;84.12;100754.97;1040244;28;20318;-79
2023/04/15 00:39:21;;;;;;;7.03;3.95;;;;;;;7.12;83.96;100763.09;1042778;28;20674;-79
2023/04/15 00:39:53;;;;;;;9.82;4.47;;;;;;;7.16;83.84;100763.53;1043574;28;20398;-79
2023/04/15 00:40:25;;;;;;;9.07;4.18;;;;;;;7.13;83.46;100756.78;1043623;28;20291;-79
2023/04/15 00:40:56;;;;;;;7.15;4.43;;;;;;;6.96;84.54;100758.09;1040036;28;20421;-79
2023/04/15 00:41:28;;;;;;;11.80;4.78;;;;;;;6.82;83.80;100757.19;1036283;28;20375;-79
2023/04/15 00:42:01;;;;;;;9.45;5.03;;;;;;;6.99;84.85;100762.19;1042912;28;20307;-79
2023/04/15 00:42:33;;;;;;;5.22;4.35;;;;;;;7.07;84.08;100764.69;1044448;28;20306;-79
2023/04/15 00:43:05;;;;;;;9.70;5.00;;;;;;;7.09;84.00;100760.00;1044637;28;20303;-80
2023/04/15 00:43:37;;;;;;;8.07;4.53;;;;;;;7.05;83.88;100767.53;1043703;28;20801;-79
2023/04/15 00:44:09;;;;;;;7.28;4.85;;;;;;;7.08;84.47;100761.00;1039728;28;20339;-79
2023/04/15 00:44:41;;;;;;;8.48;4.97;;;;;;;7.11;83.97;100761.44;1033596;28;21082;-80
2023/04/15 00:45:13;;;;;;;8.50;4.55;;;;;;;7.08;83.91;100761.00;1035432;28;20412;-79
2023/04/15 00:45:45;;;;;;;9.95;4.22;;;;;;;7.10;84.82;100765.09;1043385;28;20684;-79
2023/04/15 00:46:19;;;;;;;5.85;4.68;;;;;;;7.12;84.06;100773.69;1044825;28;20374;-79
2023/04/15 00:46:51;;;;;;;6.90;4.47;;;;;;;7.12;84.22;100763.09;1039811;28;20783;-79
2023/04/15 00:47:23;;;;;;;4.65;4.25;;;;;;;7.13;84.54;100770.03;1039941;28;20720;-79
2023/04/15 00:47:55;;;;;;;5.00;4.47;;;;;;;7.12;84.33;100771.06;1035689;28;20311;-79
2023/04/15 00:48:27;;;;;;;5.40;4.20;;;;;;;7.08;84.17;100769.78;1039111;28;20360;-80
2023/04/15 00:48:59;;;;;;;6.63;5.22;;;;;;;7.05;84.62;100764.88;1039419;28;20308;-79
2023/04/15 00:49:32;;;;;;;7.15;4.53;;;;;;;6.82;85.42;100772.25;1043893;28;20651;-79
2023/04/15 00:50:03;;;;;;;8.38;4.50;;;;;;;6.63;86.14;100767.66;1046264;28;20295;-79
2023/04/15 00:50:35;;;;;;;6.32;5.43;;;;;;;6.57;87.21;100778.97;1043105;28;20288;-79
2023/04/15 00:51:08;;;;;;;4.72;4.20;;;;;;;6.48;88.36;100776.47;1048445;28;20294;-79
2023/04/15 00:51:40;;;;;;;6.45;4.20;;;;;;;6.49;88.84;100774.66;1041174;28;20326;-80
2023/04/15 00:52:12;;;;;;;12.43;5.82;;;;;;;6.51;88.67;100776.09;1032482;28;20360;-80
2023/04/15 00:52:43;;;;;;;11.43;4.35;;;;;;;6.20;89.36;100779.09;1034629;28;20968;-79
2023/04/15 00:53:15;;;;;;;5.75;3.75;;;;;;;6.09;90.28;100784.06;1033056;28;20687;-79
2023/04/15 00:53:46;;;;;;;5.65;4.50;;;;;;;6.10;90.53;100783.88;1032263;28;20305;-79
2023/04/15 00:54:18;;;;;;;8.40;4.78;;;;;;;6.02;92.28;100785.81;1036394;28;20309;-79
2023/04/15 00:54:51;;;;;;;6.68;4.18;;;;;;;6.01;92.99;100784.16;1039411;28;20366;-80
2023/04/15 00:55:22;;;;;;;5.35;4.45;;;;;;;6.00;93.13;100791.28;1036206;28;20304;-80
2023/04/15 00:55:54;;;;;;;7.65;4.25;;;;;;;6.02;93.17;100791.09;1035172;28;20309;-80
2023/04/15 00:56:27;;;;;;;6.97;4.47;;;;;;;5.70;93.86;100785.22;1038562;28;20300;-79
2023/04/15 00:56:59;;;;;;;5.72;4.57;;;;;;;5.77;93.85;100780.03;1035696;28;20305;-79
2023/04/15 00:57:31;;;;;;;10.75;4.53;;;;;;;5.94;93.74;100783.28;1028247;28;20306;-79
2023/04/15 00:58:02;;;;;;;5.72;4.78;;;;;;;5.89;94.02;100782.03;1032065;28;20394;-80
2023/04/15 00:58:35;;;;;;;10.90;5.22;;;;;;;5.88;95.01;100782.19;1032277;28;20836;-79
2023/04/15 00:59:07;;;;;;;9.13;4.55;;;;;;;5.75;94.92;100784.66;1038253;28;20311;-79
2023/04/15 00:59:39;;;;;;;6.43;4.20;;;;;;;5.96;94.90;100783.91;1034329;28;20648;-79
2023/04/15 01:00:11;;;;;;;9.63;4.90;;;;;;;6.07;94.19;100778.16;1031603;28;20305;-80
2023/04/15 01:00:42;;;;;;;5.70;4.53;;;;;;;6.04;93.96;100789.09;1030689;28;20668;-79
2023/04/15 01:01:14;;;;;;;8.00;4.47;;;;;;;5.95;93.96;100779.63;1031475;28;20312;-79
2023/04/15 01:01:46;;;;;;;5.47;4.45;;;;;;;5.81;94.11;100784.75;1029515;28;20306;-80
2023/04/15 01:02:18;;;;;;;4.68;4.22;;;;;;;5.56;94.21;100781.63;1031814;28;20435;-79
2023/04/15 01:02:50;;;;;;;6.97;5.70;;;;;;;5.47;94.50;100776.59;1035500;28;20825;-79
2023/04/15 01:03:22;;;;;;;10.10;4.70;;;;;;;5.45;nan;100781.25;1032891;28;20575;-79
2023/04/15 01:03:57;;;;;;;6.13;5.05;;;;;;;5.51;96.10;100780.53;1036635;28;20300;-80
2023/04/15 01:04:30;;;;;;;8.02;5.60;;;;;;;5.48;96.69;100780.91;1040880;28;20375;-79
2023/04/15 01:05:03;;;;;;;6.88;4.25;;;;;;;5.43;96.29;100785.91;1037059;28;20301;-79
2023/04/15 01:05:35;;;;;;;6.82;4.32;;;;;;;5.38;96.85;100790.91;1039626;28;20927;-79
2023/04/15 01:06:07;;;;;;;6.55;4.05;;;;;;;5.54;96.58;100780.97;1033535;28;20308;-79
2023/04/15 01:06:38;;;;;;;7.57;4.28;;;;;;;5.60;96.74;100787.34;1033500;28;20297;-80
2023/04/15 01:07:10;;;;;;;7.88;5.30;;;;;;;5.59;96.38;100785.72;1036032;28;20342;-80
2023/04/15 01:07:42;;;;;;;6.03;3.95;;;;;;;5.45;97.10;100790.00;1040925;28;20777;-79
2023/04/15 01:08:13;;;;;;;7.75;4.63;;;;;;;5.53;97.44;100775.88;1039640;28;20303;-80
2023/04/15 01:08:45;;;;;;;7.80;4.95;;;;;;;5.56;97.04;100778.16;1039867;28;20672;-79
2023/04/15 01:09:17;;;;;;;6.03;4.45;;;;;;;5.44;97.54;100784.91;1041879;28;20709;-79
2023/04/15 01:09:48;;;;;;;4.80;4.18;;;;;;;5.38;98.20;100786.47;1035905;28;20319;-80
2023/04/15 01:10:20;;;;;;;8.75;5.10;;;;;;;5.34;97.43;100787.84;1039739;28;20300;-79
2023/04/15 01:10:53;;;;;;;5.18;4.57;;;;;;;5.25;97.85;100789.75;1044125;28;20294;-79
2023/04/15 01:11:26;;;;;;;6.78;5.10;;;;;;;5.14;98.05;100782.28;1038167;28;20292;-79
2023/04/15 01:11:58;;;;;;;5.60;3.95;;;;;;;5.10;98.37;100783.63;1042749;28;20366;-80
2023/04/15 01:12:31;;;;;;;6.95;5.22;;;;;;;5.12;98.78;100781.63;1031668;28;20343;-79
2023/04/15 01:13:03;;;;;;;9.07;5.80;;;;;;;5.10;98.93;100781.00;1030298;28;20345;-79
2023/04/15 01:13:35;;;;;;;6.22;4.32;;;;;;;5.08;99.64;100783.00;1032036;28;20305;-79
2023/04/15 01:14:08;;;;;;;7.57;4.15;;;;;;;5.20;99.68;100781.56;1036170;28;20305;-79
2023/04/15 01:14:40;;;;;;;5.78;4.00;;;;;;;5.21;99.84;100782.38;1043015;28;20307;-79
2023/04/15 01:15:12;;;;;;;6.03;4.75;;;;;;;5.14;100.00;100781.44;1039705;28;20362;-79
2023/04/15 01:15:44;;;;;;;6.82;4.53;;;;;;;4.95;99.86;100786.28;1036145;28;20737;-79
2023/04/15 01:16:16;;;;;;;5.72;4.32;;;;;;;5.07;100.00;100786.66;1035571;28;20319;-80
2023/04/15 01:16:48;;;;;;;6.15;4.07;;;;;;;4.87;99.83;100786.34;1035691;28;20487;-80
2023/04/15 01:17:19;;;;;;;5.47;4.47;;;;;;;4.91;100.00;100786.81;1028765;28;20333;-79
2023/04/15 01:17:51;;;;;;;8.95;5.10;;;;;;;4.95;100.00;100788.94;1032117;28;20408;-79
2023/04/15 01:18:23;;;;;;;5.63;4.30;;;;;;;5.11;100.00;100785.28;1035667;28;20300;-79
2023/04/15 01:18:55;;;;;;;6.18;4.28;;;;;;;5.18;100.00;100782.72;1031240;28;20811;-80
2023/04/15 01:19:27;;;;;;;9.98;4.70;;;;;;;5.12;100.00;100783.47;1038417;28;20682;-80
2023/04/15 01:19:58;;;;;;;8.45;5.00;;;;;;;4.74;100.00;100780.06;1037323;28;20301;-79
2023/04/15 01:20:31;;;;;;;9.85;4.35;;;;;;;4.79;100.00;100783.81;1040666;28;20832;-79
2023/04/15 01:21:05;;;;;;;5.25;4.05;;;;;;;4.88;100.00;100787.16;1047673;28;20309;-79
2023/04/15 01:21:38;;;;;;;5.10;4.60;;;;;;;4.84;100.00;100780.63;1043304;28;20314;-79
2023/04/15 01:22:10;;;;;;;6.90;4.70;;;;;;;4.93;100.00;100790.94;1037986;28;20297;-80
2023/04/15 01:22:42;;;;;;;8.20;4.63;;;;;;;4.87;100.00;100786.34;1035495;28;20386;-80
2023/04/15 01:23:14;;;;;;;5.80;4.30;;;;;;;5.04;100.00;100787.00;1032613;28;20301;-80
2023/04/15 01:23:47;;;;;;;9.60;4.80;;;;;;;4.96;100.00;100787.09;1040465;28;20324;-79
2023/04/15 01:24:18;;;;;;;6.90;4.53;;;;;;;4.93;100.00;100790.94;1037370;28;20343;-79
2023/04/15 01:25:07;;;;;;;9.80;4.93;;;;;;;5.04;100.00;100787.00;1040102;28;20296;-80
2023/04/15 01:25:40;;;;;;;5.43;3.67;;;;;;;4.84;100.00;100777.97;1043994;28;20773;-79
2023/04/15 01:26:12;;;;;;;10.05;6.00;;;;;;;4.73;100.00;100781.88;1043714;28;20299;-79
2023/04/15 01:26:44;;;;;;;4.82;4.32;;;;;;;4.80;100.00;100788.06;1034730;28;20663;-79
2023/04/15 01:27:16;;;;;;;6.50;4.88;;;;;;;4.77;100.00;100791.06;1031630;28;20289;-79
2023/04/15 01:27:47;;;;;;;8.23;4.97;;;;;;;4.88;100.00;100790.63;1032330;28;20316;-79
2023/04/15 01:28:19;;;;;;;7.38;5.43;;;;;;;5.04;100.00;100787.00;1039753;28;20312;-78
2023/04/15 01:28:51;;;;;;;6.22;4.78;;;;;;;5.00;100.00;100784.94;1047175;28;20772;-79
2023/04/15 01:29:23;;;;;;;7.10;4.95;;;;;;;5.01;100.00;100787.38;1052074;28;20668;-79
2023/04/15 01:29:54;;;;;;;5.53;4.85;;;;;;;4.54;100.00;100787.66;1052142;28;20331;-80
2023/04/15 01:30:26;;;;;;;6.55;5.35;;;;;;;4.65;100.00;100788.03;1039473;28;20347;-80
2023/04/15 01:31:09;;;;;;;9.90;4.90;;;;;;;4.77;100.00;100787.63;1039840;28;20690;-80
2023/04/15 01:31:49;;;;;;;6.93;4.60;;;;;;;4.96;100.00;100779.19;1035658;28;20327;-78
2023/04/15 01:32:21;;;;;;;7.85;4.82;;;;;;;5.00;100.00;100788.38;1039501;28;20307;-80
2023/04/15 01:32:55;;;;;;;6.13;4.93;;;;;;;4.88;100.00;100792.44;1039467;28;20995;-80
2023/04/15 01:33:27;;;;;;;10.18;6.00;;;;;;;5.20;100.00;100786.84;1042756;28;20415;-80
2023/04/15 01:33:58;;;;;;;9.57;5.22;;;;;;;5.25;100.00;100789.75;1046484;28;20295;-81
2023/04/15 01:34:30;;;;;;;10.15;5.43;;;;;;;5.24;100.00;100796.03;1039368;28;20292;-80
2023/04/15 01:35:06;;;;;;;7.95;5.38;;;;;;;5.19;100.00;100790.47;1039550;28;20785;-80
2023/04/15 01:35:38;;;;;;;6.78;5.05;;;;;;;5.08;100.00;100787.47;1039557;28;20628;-80
2023/04/15 01:36:09;;;;;;;5.50;4.75;;;;;;;5.01;100.00;100787.38;1040207;28;20303;-80
2023/04/15 01:36:41;;;;;;;6.65;4.95;;;;;;;5.00;100.00;100788.38;1042893;28;20675;-80
2023/04/15 01:37:12;;;;;;;7.88;5.18;;;;;;;4.96;100.00;100789.75;1041041;28;20295;-80
2023/04/15 01:37:44;;;;;;;9.25;5.03;;;;;;;5.10;100.00;100791.56;1035080;28;20372;-80
2023/04/15 01:38:16;;;;;;;6.22;5.30;;;;;;;4.94;100.00;100789.13;1034442;28;20336;-80
2023/04/15 01:38:49;;;;;;;5.60;5.00;;;;;;;4.83;100.00;100784.25;1033203;28;20680;-80
2023/04/15 01:39:21;;;;;;;7.60;4.80;;;;;;;4.76;100.00;100786.81;1031970;28;20376;-80
2023/04/15 01:39:53;;;;;;;10.38;5.30;;;;;;;4.83;100.00;100794.81;1036598;28;20304;-80
2023/04/15 01:40:26;;;;;;;5.70;5.18;;;;;;;4.87;100.00;100796.09;1033370;28;20375;-80
2023/04/15 01:40:58;;;;;;;5.30;4.90;;;;;;;5.00;100.00;100798.94;1036781;28;20304;-80
2023/04/15 01:41:29;;;;;;;7.38;5.93;;;;;;;5.00;100.00;100798.94;1042175;28;20477;-80
2023/04/15 01:42:01;;;;;;;7.72;5.35;;;;;;;4.87;100.00;100806.63;1041553;28;20287;-80
2023/04/15 01:42:35;;;;;;;5.78;5.13;;;;;;;4.78;100.00;100800.63;1039427;28;20292;-80
2023/04/15 01:43:07;;;;;;;5.70;4.57;;;;;;;4.76;100.00;100796.53;1039315;28;20300;-80
2023/04/15 01:43:38;;;;;;;8.15;5.22;;;;;;;4.79;100.00;100804.09;1043961;28;20295;-80
2023/04/15 01:44:12;;;;;;;6.47;5.55;;;;;;;4.64;100.00;100796.94;1045878;28;20299;-80
2023/04/15 01:44:44;;;;;;;6.05;5.13;;;;;;;4.60;100.00;100800.13;1047553;28;20881;-79
2023/04/15 01:45:16;;;;;;;6.85;4.70;;;;;;;4.54;100.00;100806.13;1047781;28;20291;-80
2023/04/15 01:45:48;;;;;;;7.25;4.47;;;;;;;4.40;100.00;100799.81;1041389;28;20299;-79
2023/04/15 01:46:19;;;;;;;6.97;5.55;;;;;;;4.40;100.00;100793.72;1040965;28;20706;-80
2023/04/15 01:46:51;;;;;;;6.57;4.63;;;;;;;4.40;100.00;100799.81;1036677;28;20434;-80
2023/04/15 01:47:23;;;;;;;6.65;4.88;;;;;;;4.16;100.00;100794.72;1036151;28;20301;-79
2023/04/15 01:47:55;;;;;;;7.55;4.95;;;;;;;4.24;100.00;100805.19;1031238;28;20298;-80
2023/04/15 01:48:27;;;;;;;7.50;5.00;;;;;;;4.40;100.00;100799.81;1031615;28;20335;-79
2023/04/15 01:49:00;;;;;;;8.65;5.22;;;;;;;4.41;100.00;100798.00;1038895;28;20319;-80
2023/04/15 01:49:32;;;;;;;7.30;5.57;;;;;;;4.63;100.00;100800.59;1039693;28;20296;-80
2023/04/15 01:50:05;;;;;;;5.70;5.13;;;;;;;4.80;100.00;100803.09;1039424;28;20403;-79
2023/04/15 01:50:37;;;;;;;9.23;5.43;;;;;;;4.70;100.00;100800.72;1039202;28;20300;-80
2023/04/15 01:51:08;;;;;;;7.90;5.85;;;;;;;4.83;100.00;100800.91;1040185;28;20674;-79
2023/04/15 01:51:40;;;;;;;11.63;5.68;;;;;;;4.49;100.00;100798.75;1039308;28;20398;-79
2023/04/15 01:52:11;;;;;;;7.85;4.97;;;;;;;4.58;100.00;100802.13;1036863;28;20350;-79
2023/04/15 01:52:44;;;;;;;7.15;5.38;;;;;;;4.64;100.00;100799.59;1040132;28;20299;-79
2023/04/15 01:53:15;;;;;;;6.85;6.07;;;;;;;4.70;100.00;100799.91;1043634;28;20303;-80
2023/04/15 01:53:47;;;;;;;7.05;5.47;;;;;;;4.73;100.00;100805.63;1039809;28;20312;-80
2023/04/15 01:54:18;;;;;;;8.35;6.32;;;;;;;4.73;100.00;100795.06;1032521;28;20298;-79
2023/04/15 01:54:50;;;;;;;5.90;5.30;;;;;;;4.74;100.00;100794.06;1039285;28;20300;-79
2023/04/15 01:55:22;;;;;;;8.82;6.70;;;;;;;4.59;100.00;100799.31;1039141;28;20304;-80
2023/04/15 01:55:54;;;;;;;6.30;5.70;;;;;;;4.67;100.00;100802.91;1032454;28;20294;-79
2023/04/15 01:56:25;;;;;;;6.20;5.57;;;;;;;4.68;100.00;100796.63;1037119;28;20338;-79
2023/04/15 01:56:57;;;;;;;7.80;5.50;;;;;;;4.89;100.00;100802.00;1031390;28;20308;-80
2023/04/15 01:57:29;;;;;;;6.70;6.00;;;;;;;4.89;100.00;100804.63;1035786;28;20803;-79
2023/04/15 01:58:01;;;;;;;10.35;5.85;;;;;;;5.00;100.00;100798.94;1043648;28;20728;-80
2023/04/15 01:58:33;;;;;;;8.85;6.78;;;;;;;5.24;100.00;100803.97;1040335;28;20362;-79
2023/04/15 01:59:05;;;;;;;8.07;6.63;;;;;;;5.27;100.00;100802.78;1043431;28;20295;-79
2023/04/15 01:59:37;;;;;;;7.50;6.60;;;;;;;5.37;100.00;100799.84;1037640;28;20681;-79
2023/04/15 02:00:09;;;;;;;9.10;6.60;;;;;;;5.33;100.00;100801.22;1037906;28;20307;-79
2023/04/15 02:00:46;;;;;;;8.10;6.00;;;;;;;5.24;100.00;100803.97;1044493;28;20617;-79
2023/04/15 02:01:18;;;;;;;10.95;6.43;;;;;;;5.16;100.00;100804.03;1044870;28;20318;-80
2023/04/15 02:01:51;;;;;;;10.63;6.28;;;;;;;5.05;100.00;100793.94;1040917;28;20805;-79
2023/04/15 02:02:23;;;;;;;6.70;5.70;;;;;;;5.00;100.00;100801.56;1036270;28;20340;-79
2023/04/15 02:02:55;;;;;;;10.32;5.70;;;;;;;4.92;100.00;100791.09;1031314;28;20691;-80
2023/04/15 02:03:29;;;;;;;10.48;6.53;;;;;;;4.92;100.00;100804.28;1035137;28;20312;-79
2023/04/15 02:04:01;;;;;;;10.27;5.80;;;;;;;4.87;100.00;100796.09;1036500;28;20296;-79
2023/04/15 02:04:34;;;;;;;7.32;5.63;;;;;;;4.90;100.00;100795.72;1036574;28;20304;-79
2023/04/15 02:05:06;;;;;;;6.00;5.35;;;;;;;4.79;100.00;100796.16;1034927;28;20304;-79
2023/04/15 02:05:38;;;;;;;9.23;5.63;;;;;;;4.83;100.00;100802.72;1036362;28;20731;-80
2023/04/15 02:06:10;;;;;;;9.55;6.00;;;;;;;4.71;100.00;100806.81;1039764;28;20300;-79
2023/04/15 02:06:42;;;;;;;14.38;5.55;;;;;;;4.60;100.00;100808.03;1039651;28;20681;-79
2023/04/15 02:07:14;;;;;;;8.02;6.28;;;;;;;4.73;100.00;100808.28;1035662;28;20299;-80
2023/04/15 02:07:45;;;;;;;10.32;6.45;;;;;;;4.68;100.00;100809.81;1029605;28;20708;-80
2023/04/15 02:08:17;;;;;;;8.63;6.72;;;;;;;4.73;100.00;100812.72;1035703;28;20303;-79
2023/04/15 02:08:49;;;;;;;7.15;6.47;;;;;;;4.67;100.00;100805.53;1035523;28;20304;-80
2023/04/15 02:09:20;;;;;;;7.85;6.72;;;;;;;4.65;100.00;100806.50;1032965;28;20332;-80
2023/04/15 02:09:52;;;;;;;9.68;5.72;;;;;;;4.61;100.00;100805.22;1039380;28;20292;-79
2023/04/15 02:10:24;;;;;;;8.73;5.53;;;;;;;4.45;100.00;100805.38;1039546;28;20295;-80
2023/04/15 02:10:55;;;;;;;6.78;6.10;;;;;;;4.39;100.00;100803.44;1044541;28;20306;-80
2023/04/15 02:11:28;;;;;;;6.72;6.07;;;;;;;4.46;100.00;100809.66;1043445;28;20303;-79
2023/04/15 02:12:00;;;;;;;7.20;6.43;;;;;;;4.47;100.00;100806.00;1035930;28;20551;-79
2023/04/15 02:12:32;;;;;;;6.38;5.55;;;;;;;4.20;100.00;100810.00;1031534;28;20436;-79
2023/04/15 02:13:04;;;;;;;6.15;5.50;;;;;;;4.20;100.00;100804.72;1032456;28;20306;-79
2023/04/15 02:13:36;;;;;;;6.40;5.53;;;;;;;4.28;100.00;100811.75;1038614;28;20303;-80
2023/04/15 02:14:08;;;;;;;8.65;5.70;;;;;;;4.12;100.00;100812.72;1040094;28;20841;-79
2023/04/15 02:14:40;;;;;;;7.88;6.45;;;;;;;4.25;100.00;100815.56;1034635;28;20298;-79
2023/04/15 02:15:11;;;;;;;11.43;6.95;;;;;;;4.33;100.00;100812.03;1043575;28;20295;-80
2023/04/15 02:15:51;;;;;;;7.35;6.63;;;;;;;4.39;100.00;100814.00;1041535;28;20322;-79
2023/04/15 02:16:23;;;;;;;7.13;6.43;;;;;;;4.32;100.00;100819.13;1036493;28;20307;-79
2023/04/15 02:16:55;;;;;;;10.10;6.05;;;;;;;4.26;100.00;100814.56;1038144;28;20045;-79
2023/04/15 02:17:27;;;;;;;8.65;5.97;;;;;;;4.34;100.00;100816.31;1036554;28;20789;-80
2023/04/15 02:17:59;;;;;;;9.50;6.13;;;;;;;4.43;100.00;100810.00;1031623;28;20546;-80
2023/04/15 02:18:31;;;;;;;6.88;6.03;;;;;;;4.38;100.00;100814.97;1039147;28;20284;-80
2023/04/15 02:19:03;;;;;;;10.10;6.68;;;;;;;4.44;100.00;100816.91;1032768;28;20293;-80
2023/04/15 02:19:34;;;;;;;10.00;7.15;;;;;;;4.39;100.00;100811.38;1033969;28;20304;-80
2023/04/15 02:20:09;;;;;;;9.50;5.70;;;;;;;4.27;100.00;100810.94;1027360;28;20302;-80
2023/04/15 02:20:42;;;;;;;10.15;7.07;;;;;;;4.27;100.00;100810.94;1035387;28;20385;-79
2023/04/15 02:21:14;;;;;;;11.65;6.55;;;;;;;4.27;100.00;100810.13;1033404;28;20735;-80
2023/04/15 02:21:45;;;;;;;9.30;6.28;;;;;;;4.35;100.00;100807.41;1037088;28;20304;-79
2023/04/15 02:22:21;;;;;;;9.20;7.90;;;;;;;4.55;100.00;100813.03;1041010;28;20741;-80
2023/04/15 02:22:53;;;;;;;10.98;7.30;;;;;;;4.51;100.00;100809.94;1036510;28;20308;-79
2023/04/15 02:23:24;;;;;;;8.35;6.40;;;;;;;4.60;100.00;100810.69;1035962;28;20296;-80
2023/04/15 02:23:56;;;;;;;9.10;7.13;;;;;;;4.52;100.00;100814.22;1040611;28;20582;-80
2023/04/15 02:24:29;;;;;;;8.75;6.15;;;;;;;4.56;100.00;100820.78;1039293;28;20311;-79
2023/04/15 02:25:01;;;;;;;8.95;6.15;;;;;;;4.45;100.00;100815.91;1035220;28;20663;-80
2023/04/15 02:25:32;;;;;;;8.70;6.10;;;;;;;4.39;100.00;100816.63;1031818;28;20825;-79
2023/04/15 02:26:04;;;;;;;8.95;6.20;;;;;;;4.39;100.00;100815.81;1030147;28;20652;-80
2023/04/15 02:26:35;;;;;;;9.70;6.35;;;;;;;4.35;100.00;100812.69;1035846;28;20303;-79
2023/04/15 02:27:07;;;;;;;9.93;7.53;;;;;;;4.35;100.00;100812.69;1035241;28;20331;-80
2023/04/15 02:27:38;;;;;;;7.32;6.63;;;;;;;4.14;100.00;100812.53;1031728;28;20324;-79
2023/04/15 02:28:10;;;;;;;8.02;6.47;;;;;;;4.15;100.00;100816.81;1035440;28;20335;-79
2023/04/15 02:28:41;;;;;;;11.85;7.05;;;;;;;4.21;100.00;100821.38;1035385;28;20363;-79
2023/04/15 02:29:13;;;;;;;7.15;5.60;;;;;;;4.27;100.00;100815.38;1040253;28;20295;-80
2023/04/15 02:29:45;;;;;;;12.70;6.30;;;;;;;4.29;100.00;100813.41;1041213;28;20813;-79
2023/04/15 02:30:17;;;;;;;7.35;6.65;;;;;;;4.29;100.00;100814.22;1043239;28;20757;-79
2023/04/15 02:30:53;;;;;;;10.93;7.75;;;;;;;4.35;100.00;100818.78;1044411;28;20387;-79